sensor_id;sensor_type;location;lat;lon;timestamp;P1;durP1;ratioP1;P2;durP2;ratioP2
45252;SDS011;63171;50.520;30.486;2023-02-28T00:00:24;5.72;;;5.03;;
45252;SDS011;63171;50.520;30.486;2023-02-28T00:01:16;6.55;;;4.57;;
45252;SDS011;63171;50.520;30.486;2023-02-28T00:02:06;5.35;;;4.72;;
45252;SDS011;63171;50.520;30.486;2023-02-28T00:02:57;6.68;;;5.05;;
45252;SDS011;63171;50.520;30.486;2023-02-28T00:03:46;8.10;;;4.90;;
45252;SDS011;63171;50.520;30.486;2023-02-28T00:04:37;6.32;;;5.47;;
45252;SDS011;63171;50.520;30.486;2023-02-28T00:05:27;6.40;;;4.80;;
45252;SDS011;63171;50.520;30.486;2023-02-28T00:06:19;7.70;;;5.28;;
45252;SDS011;63171;50.520;30.486;2023-02-28T00:07:10;7.05;;;5.25;;
45252;SDS011;63171;50.520;30.486;2023-02-28T00:08:01;5.40;;;4.65;;
45252;SDS011;63171;50.520;30.486;2023-02-28T00:08:50;6.25;;;4.88;;
45252;SDS011;63171;50.520;30.486;2023-02-28T00:09:41;6.30;;;5.28;;
45252;SDS011;63171;50.520;30.486;2023-02-28T00:10:31;7.28;;;5.03;;
45252;SDS011;63171;50.520;30.486;2023-02-28T00:11:21;5.88;;;4.65;;
45252;SDS011;63171;50.520;30.486;2023-02-28T00:12:11;6.53;;;4.68;;
45252;SDS011;63171;50.520;30.486;2023-02-28T00:13:03;6.43;;;5.05;;
45252;SDS011;63171;50.520;30.486;2023-02-28T00:13:54;6.10;;;4.63;;
45252;SDS011;63171;50.520;30.486;2023-02-28T00:15:34;5.95;;;4.70;;
45252;SDS011;63171;50.520;30.486;2023-02-28T00:16:25;6.43;;;4.85;;
45252;SDS011;63171;50.520;30.486;2023-02-28T00:17:15;6.72;;;4.82;;
45252;SDS011;63171;50.520;30.486;2023-02-28T00:18:06;5.07;;;4.53;;
45252;SDS011;63171;50.520;30.486;2023-02-28T00:18:56;6.70;;;4.93;;
45252;SDS011;63171;50.520;30.486;2023-02-28T00:19:47;6.00;;;4.65;;
45252;SDS011;63171;50.520;30.486;2023-02-28T00:21:29;6.38;;;3.92;;
45252;SDS011;63171;50.520;30.486;2023-02-28T00:22:19;6.32;;;4.45;;
45252;SDS011;63171;50.520;30.486;2023-02-28T00:23:11;5.28;;;4.25;;
45252;SDS011;63171;50.520;30.486;2023-02-28T00:24:01;5.65;;;4.80;;
45252;SDS011;63171;50.520;30.486;2023-02-28T00:24:52;6.25;;;5.05;;
45252;SDS011;63171;50.520;30.486;2023-02-28T00:25:41;6.45;;;5.15;;
45252;SDS011;63171;50.520;30.486;2023-02-28T00:26:32;6.53;;;5.05;;
45252;SDS011;63171;50.520;30.486;2023-02-28T00:27:22;5.38;;;4.22;;
45252;SDS011;63171;50.520;30.486;2023-02-28T00:28:13;4.85;;;4.07;;
45252;SDS011;63171;50.520;30.486;2023-02-28T00:29:02;4.38;;;3.97;;
45252;SDS011;63171;50.520;30.486;2023-02-28T00:29:53;5.20;;;4.25;;
45252;SDS011;63171;50.520;30.486;2023-02-28T00:30:43;5.50;;;4.60;;
45252;SDS011;63171;50.520;30.486;2023-02-28T00:31:34;6.53;;;4.05;;
45252;SDS011;63171;50.520;30.486;2023-02-28T00:32:23;8.98;;;5.20;;
45252;SDS011;63171;50.520;30.486;2023-02-28T00:33:14;7.05;;;5.47;;
45252;SDS011;63171;50.520;30.486;2023-02-28T00:34:04;6.97;;;4.80;;
45252;SDS011;63171;50.520;30.486;2023-02-28T00:34:55;7.95;;;5.10;;
45252;SDS011;63171;50.520;30.486;2023-02-28T00:35:45;7.35;;;5.05;;
45252;SDS011;63171;50.520;30.486;2023-02-28T00:36:36;5.95;;;4.85;;
45252;SDS011;63171;50.520;30.486;2023-02-28T00:37:27;5.78;;;4.50;;
45252;SDS011;63171;50.520;30.486;2023-02-28T00:38:17;8.10;;;5.00;;
45252;SDS011;63171;50.520;30.486;2023-02-28T00:39:08;9.80;;;5.22;;
45252;SDS011;63171;50.520;30.486;2023-02-28T00:39:57;7.65;;;4.72;;
45252;SDS011;63171;50.520;30.486;2023-02-28T00:40:48;5.90;;;4.63;;
45252;SDS011;63171;50.520;30.486;2023-02-28T00:41:38;6.82;;;4.97;;
45252;SDS011;63171;50.520;30.486;2023-02-28T00:42:30;5.43;;;4.93;;
45252;SDS011;63171;50.520;30.486;2023-02-28T00:43:19;6.68;;;4.45;;
45252;SDS011;63171;50.520;30.486;2023-02-28T00:44:10;7.55;;;4.88;;
45252;SDS011;63171;50.520;30.486;2023-02-28T00:45:00;7.22;;;5.20;;
45252;SDS011;63171;50.520;30.486;2023-02-28T00:45:53;4.43;;;4.00;;
45252;SDS011;63171;50.520;30.486;2023-02-28T00:46:43;6.05;;;5.32;;
45252;SDS011;63171;50.520;30.486;2023-02-28T00:47:34;5.63;;;5.03;;
45252;SDS011;63171;50.520;30.486;2023-02-28T00:48:24;7.40;;;5.55;;
45252;SDS011;63171;50.520;30.486;2023-02-28T00:49:15;11.77;;;5.75;;
45252;SDS011;63171;50.520;30.486;2023-02-28T00:50:05;7.10;;;4.90;;
45252;SDS011;63171;50.520;30.486;2023-02-28T00:51:00;5.38;;;4.18;;
45252;SDS011;63171;50.520;30.486;2023-02-28T00:51:51;5.63;;;4.80;;
45252;SDS011;63171;50.520;30.486;2023-02-28T00:52:42;7.07;;;4.20;;
45252;SDS011;63171;50.520;30.486;2023-02-28T00:53:32;8.70;;;5.10;;
45252;SDS011;63171;50.520;30.486;2023-02-28T00:54:23;6.00;;;5.05;;
45252;SDS011;63171;50.520;30.486;2023-02-28T00:56:04;5.00;;;4.50;;
45252;SDS011;63171;50.520;30.486;2023-02-28T00:57:45;6.00;;;4.13;;
45252;SDS011;63171;50.520;30.486;2023-02-28T00:58:34;5.85;;;4.47;;
45252;SDS011;63171;50.520;30.486;2023-02-28T00:59:25;4.45;;;3.90;;
45252;SDS011;63171;50.520;30.486;2023-02-28T01:00:15;4.63;;;3.97;;
45252;SDS011;63171;50.520;30.486;2023-02-28T01:02:52;5.82;;;5.10;;
45252;SDS011;63171;50.520;30.486;2023-02-28T01:03:41;5.80;;;4.10;;
45252;SDS011;63171;50.520;30.486;2023-02-28T01:04:32;7.32;;;5.15;;
45252;SDS011;63171;50.520;30.486;2023-02-28T01:05:24;7.28;;;5.65;;
45252;SDS011;63171;50.520;30.486;2023-02-28T01:06:14;7.88;;;5.38;;
45252;SDS011;63171;50.520;30.486;2023-02-28T01:07:05;7.03;;;5.10;;
45252;SDS011;63171;50.520;30.486;2023-02-28T01:07:57;7.55;;;5.05;;
45252;SDS011;63171;50.520;30.486;2023-02-28T01:08:47;5.35;;;4.05;;
45252;SDS011;63171;50.520;30.486;2023-02-28T01:09:37;5.85;;;4.65;;
45252;SDS011;63171;50.520;30.486;2023-02-28T01:10:27;6.30;;;4.55;;
45252;SDS011;63171;50.520;30.486;2023-02-28T01:11:20;6.95;;;4.88;;
45252;SDS011;63171;50.520;30.486;2023-02-28T01:12:10;6.43;;;4.47;;
45252;SDS011;63171;50.520;30.486;2023-02-28T01:13:01;6.20;;;4.53;;
45252;SDS011;63171;50.520;30.486;2023-02-28T01:13:50;6.00;;;5.03;;
45252;SDS011;63171;50.520;30.486;2023-02-28T01:14:41;7.00;;;4.32;;
45252;SDS011;63171;50.520;30.486;2023-02-28T01:15:31;7.35;;;5.38;;
45252;SDS011;63171;50.520;30.486;2023-02-28T01:16:23;7.95;;;5.25;;
45252;SDS011;63171;50.520;30.486;2023-02-28T01:17:13;5.80;;;4.13;;
45252;SDS011;63171;50.520;30.486;2023-02-28T01:18:04;5.78;;;4.80;;
45252;SDS011;63171;50.520;30.486;2023-02-28T01:18:54;6.80;;;4.93;;
45252;SDS011;63171;50.520;30.486;2023-02-28T01:20:35;8.52;;;4.43;;
45252;SDS011;63171;50.520;30.486;2023-02-28T01:21:26;5.60;;;3.75;;
45252;SDS011;63171;50.520;30.486;2023-02-28T01:22:18;8.07;;;5.22;;
45252;SDS011;63171;50.520;30.486;2023-02-28T01:23:08;8.93;;;4.78;;
45252;SDS011;63171;50.520;30.486;2023-02-28T01:23:58;8.10;;;5.05;;
45252;SDS011;63171;50.520;30.486;2023-02-28T01:24:48;8.02;;;4.63;;
45252;SDS011;63171;50.520;30.486;2023-02-28T01:25:39;5.55;;;4.13;;
45252;SDS011;63171;50.520;30.486;2023-02-28T01:26:29;4.95;;;4.07;;
45252;SDS011;63171;50.520;30.486;2023-02-28T01:27:20;6.28;;;4.70;;
45252;SDS011;63171;50.520;30.486;2023-02-28T01:28:10;6.78;;;5.13;;
45252;SDS011;63171;50.520;30.486;2023-02-28T01:29:01;8.07;;;5.57;;
45252;SDS011;63171;50.520;30.486;2023-02-28T01:29:50;5.88;;;4.35;;
45252;SDS011;63171;50.520;30.486;2023-02-28T01:30:41;7.00;;;4.90;;
45252;SDS011;63171;50.520;30.486;2023-02-28T01:31:31;5.07;;;4.25;;
45252;SDS011;63171;50.520;30.486;2023-02-28T01:32:22;7.63;;;5.60;;
45252;SDS011;63171;50.520;30.486;2023-02-28T01:34:03;5.85;;;5.13;;
45252;SDS011;63171;50.520;30.486;2023-02-28T01:34:53;6.95;;;4.97;;
45252;SDS011;63171;50.520;30.486;2023-02-28T01:35:46;8.32;;;4.20;;
45252;SDS011;63171;50.520;30.486;2023-02-28T01:36:36;6.53;;;4.93;;
45252;SDS011;63171;50.520;30.486;2023-02-28T01:37:28;4.93;;;4.25;;
45252;SDS011;63171;50.520;30.486;2023-02-28T01:38:17;5.57;;;4.90;;
45252;SDS011;63171;50.520;30.486;2023-02-28T01:39:08;6.38;;;4.70;;
45252;SDS011;63171;50.520;30.486;2023-02-28T01:39:58;7.15;;;5.57;;
45252;SDS011;63171;50.520;30.486;2023-02-28T01:41:38;7.35;;;4.85;;
45252;SDS011;63171;50.520;30.486;2023-02-28T01:42:30;5.93;;;4.78;;
45252;SDS011;63171;50.520;30.486;2023-02-28T01:43:21;7.15;;;4.45;;
45252;SDS011;63171;50.520;30.486;2023-02-28T01:45:41;7.13;;;5.78;;
45252;SDS011;63171;50.520;30.486;2023-02-28T01:46:32;7.22;;;5.13;;
45252;SDS011;63171;50.520;30.486;2023-02-28T01:47:23;5.80;;;4.93;;
45252;SDS011;63171;50.520;30.486;2023-02-28T01:48:16;5.32;;;4.75;;
45252;SDS011;63171;50.520;30.486;2023-02-28T01:49:07;8.00;;;5.82;;
45252;SDS011;63171;50.520;30.486;2023-02-28T01:50:03;6.90;;;5.05;;
45252;SDS011;63171;50.520;30.486;2023-02-28T01:50:55;8.40;;;5.65;;
45252;SDS011;63171;50.520;30.486;2023-02-28T01:51:51;10.35;;;6.53;;
45252;SDS011;63171;50.520;30.486;2023-02-28T01:52:45;8.93;;;6.40;;
45252;SDS011;63171;50.520;30.486;2023-02-28T01:53:39;8.07;;;5.70;;
45252;SDS011;63171;50.520;30.486;2023-02-28T01:54:35;6.07;;;4.78;;
45252;SDS011;63171;50.520;30.486;2023-02-28T01:55:26;5.80;;;4.70;;
45252;SDS011;63171;50.520;30.486;2023-02-28T01:56:22;6.15;;;5.25;;
45252;SDS011;63171;50.520;30.486;2023-02-28T01:57:17;7.82;;;4.68;;
45252;SDS011;63171;50.520;30.486;2023-02-28T01:58:10;8.40;;;5.22;;
45252;SDS011;63171;50.520;30.486;2023-02-28T01:59:01;5.75;;;4.53;;
45252;SDS011;63171;50.520;30.486;2023-02-28T01:59:53;6.70;;;4.45;;
45252;SDS011;63171;50.520;30.486;2023-02-28T02:00:48;6.65;;;4.68;;
45252;SDS011;63171;50.520;30.486;2023-02-28T02:01:38;7.00;;;5.07;;
45252;SDS011;63171;50.520;30.486;2023-02-28T02:02:28;6.65;;;5.18;;
45252;SDS011;63171;50.520;30.486;2023-02-28T02:03:18;5.82;;;4.55;;
45252;SDS011;63171;50.520;30.486;2023-02-28T02:04:10;5.75;;;4.10;;
45252;SDS011;63171;50.520;30.486;2023-02-28T02:05:03;5.30;;;4.63;;
45252;SDS011;63171;50.520;30.486;2023-02-28T02:05:56;5.05;;;4.25;;
45252;SDS011;63171;50.520;30.486;2023-02-28T02:06:46;4.84;;;4.18;;
45252;SDS011;63171;50.520;30.486;2023-02-28T02:07:39;5.65;;;5.10;;
45252;SDS011;63171;50.520;30.486;2023-02-28T02:08:33;4.68;;;4.13;;
45252;SDS011;63171;50.520;30.486;2023-02-28T02:09:24;5.10;;;4.60;;
45252;SDS011;63171;50.520;30.486;2023-02-28T02:10:16;6.03;;;4.00;;
45252;SDS011;63171;50.520;30.486;2023-02-28T02:11:08;5.60;;;4.60;;
45252;SDS011;63171;50.520;30.486;2023-02-28T02:12:09;6.93;;;4.22;;
45252;SDS011;63171;50.520;30.486;2023-02-28T02:13:14;5.45;;;4.18;;
45252;SDS011;63171;50.520;30.486;2023-02-28T02:14:25;4.53;;;3.63;;
45252;SDS011;63171;50.520;30.486;2023-02-28T02:15:30;5.03;;;3.55;;
45252;SDS011;63171;50.520;30.486;2023-02-28T02:16:26;6.00;;;3.95;;
45252;SDS011;63171;50.520;30.486;2023-02-28T02:17:35;4.30;;;3.80;;
45252;SDS011;63171;50.520;30.486;2023-02-28T02:18:30;5.53;;;4.90;;
45252;SDS011;63171;50.520;30.486;2023-02-28T02:22:26;6.57;;;4.18;;
45252;SDS011;63171;50.520;30.486;2023-02-28T02:25:11;6.38;;;4.00;;
45252;SDS011;63171;50.520;30.486;2023-02-28T02:26:23;6.75;;;4.72;;
45252;SDS011;63171;50.520;30.486;2023-02-28T02:27:46;5.55;;;4.68;;
45252;SDS011;63171;50.520;30.486;2023-02-28T02:29:10;4.55;;;4.15;;
45252;SDS011;63171;50.520;30.486;2023-02-28T02:30:33;5.38;;;4.25;;
45252;SDS011;63171;50.520;30.486;2023-02-28T02:31:51;4.57;;;4.18;;
45252;SDS011;63171;50.520;30.486;2023-02-28T02:35:31;7.47;;;4.70;;
45252;SDS011;63171;50.520;30.486;2023-02-28T02:36:30;5.75;;;5.15;;
45252;SDS011;63171;50.520;30.486;2023-02-28T02:37:25;7.18;;;4.70;;
45252;SDS011;63171;50.520;30.486;2023-02-28T02:38:26;6.18;;;4.35;;
45252;SDS011;63171;50.520;30.486;2023-02-28T02:39:23;5.45;;;4.90;;
45252;SDS011;63171;50.520;30.486;2023-02-28T02:40:20;7.10;;;4.05;;
45252;SDS011;63171;50.520;30.486;2023-02-28T02:41:14;4.72;;;3.88;;
45252;SDS011;63171;50.520;30.486;2023-02-28T02:42:11;5.80;;;4.35;;
45252;SDS011;63171;50.520;30.486;2023-02-28T02:43:07;5.68;;;4.18;;
45252;SDS011;63171;50.520;30.486;2023-02-28T02:44:04;5.03;;;3.85;;
45252;SDS011;63171;50.520;30.486;2023-02-28T02:45:00;5.75;;;5.22;;
45252;SDS011;63171;50.520;30.486;2023-02-28T02:45:55;5.32;;;4.82;;
45252;SDS011;63171;50.520;30.486;2023-02-28T02:46:48;4.18;;;3.78;;
45252;SDS011;63171;50.520;30.486;2023-02-28T02:47:43;5.18;;;4.07;;
45252;SDS011;63171;50.520;30.486;2023-02-28T02:48:34;5.78;;;4.18;;
45252;SDS011;63171;50.520;30.486;2023-02-28T02:49:30;4.30;;;3.58;;
45252;SDS011;63171;50.520;30.486;2023-02-28T02:50:22;4.18;;;3.60;;
45252;SDS011;63171;50.520;30.486;2023-02-28T02:51:22;5.28;;;3.70;;
45252;SDS011;63171;50.520;30.486;2023-02-28T02:52:15;4.45;;;4.00;;
45252;SDS011;63171;50.520;30.486;2023-02-28T02:53:10;3.63;;;3.08;;
45252;SDS011;63171;50.520;30.486;2023-02-28T02:54:05;4.30;;;3.90;;
45252;SDS011;63171;50.520;30.486;2023-02-28T02:54:59;4.82;;;3.78;;
45252;SDS011;63171;50.520;30.486;2023-02-28T02:55:51;5.15;;;3.65;;
45252;SDS011;63171;50.520;30.486;2023-02-28T02:56:46;4.93;;;3.78;;
45252;SDS011;63171;50.520;30.486;2023-02-28T02:57:38;4.80;;;4.07;;
45252;SDS011;63171;50.520;30.486;2023-02-28T02:58:37;4.78;;;3.83;;
45252;SDS011;63171;50.520;30.486;2023-02-28T02:59:32;5.47;;;3.72;;
45252;SDS011;63171;50.520;30.486;2023-02-28T03:00:26;5.32;;;4.57;;
45252;SDS011;63171;50.520;30.486;2023-02-28T03:01:21;4.53;;;3.38;;
45252;SDS011;63171;50.520;30.486;2023-02-28T03:02:17;6.43;;;4.05;;
45252;SDS011;63171;50.520;30.486;2023-02-28T03:03:08;6.28;;;4.30;;
45252;SDS011;63171;50.520;30.486;2023-02-28T03:04:02;4.05;;;3.63;;
45252;SDS011;63171;50.520;30.486;2023-02-28T03:04:56;6.03;;;4.35;;
45252;SDS011;63171;50.520;30.486;2023-02-28T03:05:51;3.95;;;3.35;;
45252;SDS011;63171;50.520;30.486;2023-02-28T03:06:42;6.28;;;4.05;;
45252;SDS011;63171;50.520;30.486;2023-02-28T03:07:33;4.93;;;3.47;;
45252;SDS011;63171;50.520;30.486;2023-02-28T03:08:23;4.00;;;3.60;;
45252;SDS011;63171;50.520;30.486;2023-02-28T03:09:15;5.93;;;4.53;;
45252;SDS011;63171;50.520;30.486;2023-02-28T03:11:18;6.80;;;4.38;;
45252;SDS011;63171;50.520;30.486;2023-02-28T03:12:09;5.13;;;4.43;;
45252;SDS011;63171;50.520;30.486;2023-02-28T03:14:30;4.60;;;3.78;;
45252;SDS011;63171;50.520;30.486;2023-02-28T03:15:31;4.55;;;3.83;;
45252;SDS011;63171;50.520;30.486;2023-02-28T03:16:35;5.95;;;4.55;;
45252;SDS011;63171;50.520;30.486;2023-02-28T03:17:38;5.53;;;4.03;;
45252;SDS011;63171;50.520;30.486;2023-02-28T03:18:39;4.82;;;4.03;;
45252;SDS011;63171;50.520;30.486;2023-02-28T03:19:47;5.15;;;4.07;;
45252;SDS011;63171;50.520;30.486;2023-02-28T03:20:45;5.82;;;4.07;;
45252;SDS011;63171;50.520;30.486;2023-02-28T03:21:50;6.13;;;4.68;;
45252;SDS011;63171;50.520;30.486;2023-02-28T03:22:51;6.93;;;4.70;;
45252;SDS011;63171;50.520;30.486;2023-02-28T03:23:52;8.55;;;5.28;;
45252;SDS011;63171;50.520;30.486;2023-02-28T03:24:49;6.15;;;5.00;;
45252;SDS011;63171;50.520;30.486;2023-02-28T03:25:55;6.60;;;4.63;;
45252;SDS011;63171;50.520;30.486;2023-02-28T03:26:50;5.13;;;4.28;;
45252;SDS011;63171;50.520;30.486;2023-02-28T03:27:48;6.85;;;5.13;;
45252;SDS011;63171;50.520;30.486;2023-02-28T03:28:47;6.47;;;5.07;;
45252;SDS011;63171;50.520;30.486;2023-02-28T03:29:45;7.13;;;5.18;;
45252;SDS011;63171;50.520;30.486;2023-02-28T03:30:39;5.82;;;4.28;;
45252;SDS011;63171;50.520;30.486;2023-02-28T03:31:37;5.60;;;4.28;;
45252;SDS011;63171;50.520;30.486;2023-02-28T03:32:33;7.53;;;4.20;;
45252;SDS011;63171;50.520;30.486;2023-02-28T03:33:28;5.85;;;4.28;;
45252;SDS011;63171;50.520;30.486;2023-02-28T03:34:24;7.38;;;4.70;;
45252;SDS011;63171;50.520;30.486;2023-02-28T03:35:20;6.40;;;4.70;;
45252;SDS011;63171;50.520;30.486;2023-02-28T03:36:13;5.25;;;4.18;;
45252;SDS011;63171;50.520;30.486;2023-02-28T03:37:09;6.10;;;3.83;;
45252;SDS011;63171;50.520;30.486;2023-02-28T03:38:05;5.93;;;4.93;;
45252;SDS011;63171;50.520;30.486;2023-02-28T03:39:03;8.25;;;4.80;;
45252;SDS011;63171;50.520;30.486;2023-02-28T03:39:56;6.10;;;4.35;;
45252;SDS011;63171;50.520;30.486;2023-02-28T03:41:07;7.88;;;4.60;;
45252;SDS011;63171;50.520;30.486;2023-02-28T03:42:03;7.22;;;5.05;;
45252;SDS011;63171;50.520;30.486;2023-02-28T03:42:59;6.13;;;4.55;;
45252;SDS011;63171;50.520;30.486;2023-02-28T03:43:54;7.15;;;4.60;;
45252;SDS011;63171;50.520;30.486;2023-02-28T03:44:48;7.30;;;5.35;;
45252;SDS011;63171;50.520;30.486;2023-02-28T03:45:40;6.47;;;4.95;;
45252;SDS011;63171;50.520;30.486;2023-02-28T03:46:35;7.63;;;4.72;;
45252;SDS011;63171;50.520;30.486;2023-02-28T03:47:31;11.30;;;5.30;;
45252;SDS011;63171;50.520;30.486;2023-02-28T03:48:26;7.32;;;4.63;;
45252;SDS011;63171;50.520;30.486;2023-02-28T03:49:20;7.30;;;4.95;;
45252;SDS011;63171;50.520;30.486;2023-02-28T03:50:16;6.82;;;4.90;;
45252;SDS011;63171;50.520;30.486;2023-02-28T03:51:09;7.97;;;5.47;;
45252;SDS011;63171;50.520;30.486;2023-02-28T03:52:02;6.43;;;5.00;;
45252;SDS011;63171;50.520;30.486;2023-02-28T03:52:57;6.70;;;5.22;;
45252;SDS011;63171;50.520;30.486;2023-02-28T03:53:54;7.25;;;4.78;;
45252;SDS011;63171;50.520;30.486;2023-02-28T03:54:48;10.63;;;5.53;;
45252;SDS011;63171;50.520;30.486;2023-02-28T03:55:43;9.57;;;5.75;;
45252;SDS011;63171;50.520;30.486;2023-02-28T03:56:37;10.55;;;7.15;;
45252;SDS011;63171;50.520;30.486;2023-02-28T03:57:32;13.93;;;8.65;;
45252;SDS011;63171;50.520;30.486;2023-02-28T03:58:27;12.65;;;8.30;;
45252;SDS011;63171;50.520;30.486;2023-02-28T03:59:22;15.23;;;9.68;;
45252;SDS011;63171;50.520;30.486;2023-02-28T04:00:17;16.42;;;9.77;;
45252;SDS011;63171;50.520;30.486;2023-02-28T04:01:12;15.48;;;9.90;;
45252;SDS011;63171;50.520;30.486;2023-02-28T04:02:04;13.45;;;8.40;;
45252;SDS011;63171;50.520;30.486;2023-02-28T04:02:55;16.83;;;9.45;;
45252;SDS011;63171;50.520;30.486;2023-02-28T04:03:45;15.95;;;10.48;;
45252;SDS011;63171;50.520;30.486;2023-02-28T04:04:36;18.77;;;11.25;;
45252;SDS011;63171;50.520;30.486;2023-02-28T04:05:25;16.83;;;11.38;;
45252;SDS011;63171;50.520;30.486;2023-02-28T04:06:18;17.23;;;9.75;;
45252;SDS011;63171;50.520;30.486;2023-02-28T04:07:09;13.13;;;8.40;;
45252;SDS011;63171;50.520;30.486;2023-02-28T04:08:06;14.82;;;8.70;;
45252;SDS011;63171;50.520;30.486;2023-02-28T04:08:57;14.75;;;9.23;;
45252;SDS011;63171;50.520;30.486;2023-02-28T04:09:48;12.40;;;8.52;;
45252;SDS011;63171;50.520;30.486;2023-02-28T04:10:38;14.88;;;8.48;;
45252;SDS011;63171;50.520;30.486;2023-02-28T04:11:30;14.32;;;9.05;;
45252;SDS011;63171;50.520;30.486;2023-02-28T04:12:23;19.38;;;9.48;;
45252;SDS011;63171;50.520;30.486;2023-02-28T04:13:14;14.48;;;7.65;;
45252;SDS011;63171;50.520;30.486;2023-02-28T04:14:05;12.85;;;7.57;;
45252;SDS011;63171;50.520;30.486;2023-02-28T04:14:57;13.52;;;8.40;;
45252;SDS011;63171;50.520;30.486;2023-02-28T04:15:47;17.48;;;11.05;;
45252;SDS011;63171;50.520;30.486;2023-02-28T04:16:38;16.38;;;9.55;;
45252;SDS011;63171;50.520;30.486;2023-02-28T04:17:29;18.23;;;9.68;;
45252;SDS011;63171;50.520;30.486;2023-02-28T04:18:19;16.67;;;9.43;;
45252;SDS011;63171;50.520;30.486;2023-02-28T04:19:10;17.23;;;11.23;;
45252;SDS011;63171;50.520;30.486;2023-02-28T04:20:02;22.63;;;13.23;;
45252;SDS011;63171;50.520;30.486;2023-02-28T04:20:52;29.70;;;17.70;;
45252;SDS011;63171;50.520;30.486;2023-02-28T04:21:44;19.52;;;13.07;;
45252;SDS011;63171;50.520;30.486;2023-02-28T04:22:34;19.80;;;13.48;;
45252;SDS011;63171;50.520;30.486;2023-02-28T04:23:26;22.42;;;12.50;;
45252;SDS011;63171;50.520;30.486;2023-02-28T04:24:17;16.65;;;12.32;;
45252;SDS011;63171;50.520;30.486;2023-02-28T04:25:09;22.65;;;12.27;;
45252;SDS011;63171;50.520;30.486;2023-02-28T04:25:58;16.85;;;10.68;;
45252;SDS011;63171;50.520;30.486;2023-02-28T04:26:50;17.23;;;9.85;;
45252;SDS011;63171;50.520;30.486;2023-02-28T04:27:40;16.92;;;10.93;;
45252;SDS011;63171;50.520;30.486;2023-02-28T04:28:33;16.55;;;9.63;;
45252;SDS011;63171;50.520;30.486;2023-02-28T04:29:24;10.88;;;8.10;;
45252;SDS011;63171;50.520;30.486;2023-02-28T04:30:16;18.25;;;9.50;;
45252;SDS011;63171;50.520;30.486;2023-02-28T04:31:05;15.73;;;10.43;;
45252;SDS011;63171;50.520;30.486;2023-02-28T04:31:55;15.80;;;9.02;;
45252;SDS011;63171;50.520;30.486;2023-02-28T04:32:48;14.75;;;10.88;;
45252;SDS011;63171;50.520;30.486;2023-02-28T04:33:38;12.63;;;8.00;;
45252;SDS011;63171;50.520;30.486;2023-02-28T04:34:30;12.38;;;9.52;;
45252;SDS011;63171;50.520;30.486;2023-02-28T04:35:20;12.82;;;9.13;;
45252;SDS011;63171;50.520;30.486;2023-02-28T04:36:11;10.75;;;7.15;;
45252;SDS011;63171;50.520;30.486;2023-02-28T04:37:02;10.52;;;7.80;;
45252;SDS011;63171;50.520;30.486;2023-02-28T04:37:52;9.57;;;7.97;;
45252;SDS011;63171;50.520;30.486;2023-02-28T04:38:44;11.10;;;8.32;;
45252;SDS011;63171;50.520;30.486;2023-02-28T04:39:35;12.32;;;7.85;;
45252;SDS011;63171;50.520;30.486;2023-02-28T04:40:25;11.52;;;7.38;;
45252;SDS011;63171;50.520;30.486;2023-02-28T04:41:16;8.48;;;7.10;;
45252;SDS011;63171;50.520;30.486;2023-02-28T04:42:06;8.50;;;6.88;;
45252;SDS011;63171;50.520;30.486;2023-02-28T04:42:56;8.60;;;5.97;;
45252;SDS011;63171;50.520;30.486;2023-02-28T04:43:46;9.75;;;6.60;;
45252;SDS011;63171;50.520;30.486;2023-02-28T04:44:36;7.90;;;5.95;;
45252;SDS011;63171;50.520;30.486;2023-02-28T04:45:27;8.45;;;6.32;;
45252;SDS011;63171;50.520;30.486;2023-02-28T04:46:21;9.05;;;6.32;;
45252;SDS011;63171;50.520;30.486;2023-02-28T04:47:12;11.13;;;5.88;;
45252;SDS011;63171;50.520;30.486;2023-02-28T04:48:02;7.03;;;6.32;;
45252;SDS011;63171;50.520;30.486;2023-02-28T04:48:53;10.38;;;6.45;;
45252;SDS011;63171;50.520;30.486;2023-02-28T04:49:43;10.50;;;5.85;;
45252;SDS011;63171;50.520;30.486;2023-02-28T04:50:33;8.93;;;5.80;;
45252;SDS011;63171;50.520;30.486;2023-02-28T04:51:23;12.95;;;7.32;;
45252;SDS011;63171;50.520;30.486;2023-02-28T04:52:13;8.20;;;7.05;;
45252;SDS011;63171;50.520;30.486;2023-02-28T04:53:03;6.28;;;5.00;;
45252;SDS011;63171;50.520;30.486;2023-02-28T04:53:55;8.20;;;5.47;;
45252;SDS011;63171;50.520;30.486;2023-02-28T04:54:45;7.13;;;5.15;;
45252;SDS011;63171;50.520;30.486;2023-02-28T04:55:36;8.85;;;5.30;;
45252;SDS011;63171;50.520;30.486;2023-02-28T04:56:26;12.88;;;5.55;;
45252;SDS011;63171;50.520;30.486;2023-02-28T04:57:16;9.70;;;6.43;;
45252;SDS011;63171;50.520;30.486;2023-02-28T04:58:06;11.80;;;5.68;;
45252;SDS011;63171;50.520;30.486;2023-02-28T04:58:57;7.32;;;6.18;;
45252;SDS011;63171;50.520;30.486;2023-02-28T04:59:47;9.10;;;6.10;;
45252;SDS011;63171;50.520;30.486;2023-02-28T05:00:37;13.43;;;7.40;;
45252;SDS011;63171;50.520;30.486;2023-02-28T05:01:28;7.28;;;6.43;;
45252;SDS011;63171;50.520;30.486;2023-02-28T05:02:20;9.05;;;5.20;;
45252;SDS011;63171;50.520;30.486;2023-02-28T05:03:10;8.70;;;4.95;;
45252;SDS011;63171;50.520;30.486;2023-02-28T05:04:02;7.82;;;5.43;;
45252;SDS011;63171;50.520;30.486;2023-02-28T05:04:52;6.93;;;4.65;;
45252;SDS011;63171;50.520;30.486;2023-02-28T05:05:43;9.93;;;5.35;;
45252;SDS011;63171;50.520;30.486;2023-02-28T05:06:33;11.02;;;6.05;;
45252;SDS011;63171;50.520;30.486;2023-02-28T05:07:24;7.72;;;5.43;;
45252;SDS011;63171;50.520;30.486;2023-02-28T05:08:14;7.07;;;5.35;;
45252;SDS011;63171;50.520;30.486;2023-02-28T05:09:06;10.93;;;5.93;;
45252;SDS011;63171;50.520;30.486;2023-02-28T05:09:56;8.23;;;5.00;;
45252;SDS011;63171;50.520;30.486;2023-02-28T05:10:47;8.30;;;6.50;;
45252;SDS011;63171;50.520;30.486;2023-02-28T05:11:37;10.73;;;4.97;;
45252;SDS011;63171;50.520;30.486;2023-02-28T05:12:28;7.15;;;4.63;;
45252;SDS011;63171;50.520;30.486;2023-02-28T05:13:18;10.43;;;6.38;;
45252;SDS011;63171;50.520;30.486;2023-02-28T05:14:09;9.00;;;4.82;;
45252;SDS011;63171;50.520;30.486;2023-02-28T05:15:01;7.40;;;4.82;;
45252;SDS011;63171;50.520;30.486;2023-02-28T05:15:52;7.35;;;4.95;;
45252;SDS011;63171;50.520;30.486;2023-02-28T05:16:42;9.55;;;5.57;;
45252;SDS011;63171;50.520;30.486;2023-02-28T05:17:32;7.43;;;5.15;;
45252;SDS011;63171;50.520;30.486;2023-02-28T05:18:22;6.90;;;5.32;;
45252;SDS011;63171;50.520;30.486;2023-02-28T05:19:13;11.88;;;6.50;;
45252;SDS011;63171;50.520;30.486;2023-02-28T05:20:03;11.02;;;6.30;;
45252;SDS011;63171;50.520;30.486;2023-02-28T05:20:55;11.23;;;5.97;;
45252;SDS011;63171;50.520;30.486;2023-02-28T05:21:49;12.30;;;6.32;;
45252;SDS011;63171;50.520;30.486;2023-02-28T05:22:41;8.13;;;5.60;;
45252;SDS011;63171;50.520;30.486;2023-02-28T05:24:24;7.20;;;5.53;;
45252;SDS011;63171;50.520;30.486;2023-02-28T05:25:16;7.93;;;5.85;;
45252;SDS011;63171;50.520;30.486;2023-02-28T05:26:08;8.50;;;5.75;;
45252;SDS011;63171;50.520;30.486;2023-02-28T05:26:57;8.75;;;5.85;;
45252;SDS011;63171;50.520;30.486;2023-02-28T05:27:48;12.27;;;6.55;;
45252;SDS011;63171;50.520;30.486;2023-02-28T05:28:38;9.40;;;5.93;;
45252;SDS011;63171;50.520;30.486;2023-02-28T05:29:28;14.10;;;6.97;;
45252;SDS011;63171;50.520;30.486;2023-02-28T05:30:19;14.93;;;6.78;;
45252;SDS011;63171;50.520;30.486;2023-02-28T05:31:09;14.27;;;7.30;;
45252;SDS011;63171;50.520;30.486;2023-02-28T05:32:01;9.63;;;6.72;;
45252;SDS011;63171;50.520;30.486;2023-02-28T05:32:51;10.38;;;6.07;;